createdAt,value
2017-07-15T00:02:19.667Z,73.20
2017-07-15T00:04:47.158Z,73.40
2017-07-15T00:07:15.432Z,73.80
2017-07-15T00:09:42.965Z,73.40
2017-07-15T00:12:10.511Z,73.50
2017-07-15T00:14:38.034Z,73.50
2017-07-15T00:17:07.038Z,73.60
2017-07-15T00:19:35.348Z,73.40
2017-07-15T00:22:03.615Z,74.10
2017-07-15T00:24:31.908Z,73.30
2017-07-15T00:26:59.425Z,73.40
2017-07-15T00:29:27.688Z,73.50
2017-07-15T00:31:55.214Z,73.60
2017-07-15T00:34:22.716Z,73.60
2017-07-15T00:36:50.237Z,73.70
2017-07-15T00:39:17.741Z,73.60
2017-07-15T00:41:45.259Z,73.50
2017-07-15T00:44:12.759Z,73.40
2017-07-15T00:46:40.676Z,73.30
2017-07-15T00:49:08.171Z,73.30
2017-07-15T00:51:35.668Z,73.10
2017-07-15T00:54:03.195Z,73.10
2017-07-15T00:56:31.464Z,73.00
2017-07-15T00:58:59.755Z,73.50
2017-07-15T01:01:27.265Z,73.10
2017-07-15T01:03:54.791Z,73.00
2017-07-15T01:06:22.282Z,73.10
2017-07-15T01:08:50.206Z,73.10
2017-07-15T01:11:17.706Z,73.10
2017-07-15T01:13:45.214Z,73.10
2017-07-15T01:16:12.745Z,73.10
2017-07-15T01:18:40.265Z,73.00
2017-07-15T01:21:07.792Z,72.90
2017-07-15T01:23:35.287Z,72.90
2017-07-15T01:26:03.204Z,72.80
2017-07-15T01:28:31.475Z,72.50
2017-07-15T01:30:59.404Z,72.80
2017-07-15T01:33:26.904Z,72.70
2017-07-15T01:35:54.404Z,72.80
2017-07-15T01:38:22.692Z,73.40
2017-07-15T01:40:50.202Z,72.80
2017-07-15T01:43:17.734Z,72.90
2017-07-15T01:45:45.232Z,72.80
2017-07-15T01:48:12.815Z,72.80
2017-07-15T01:50:40.316Z,72.80
2017-07-15T01:53:09.339Z,72.80
2017-07-15T01:55:36.836Z,72.80
2017-07-15T01:58:05.145Z,72.80
2017-07-15T02:00:32.646Z,73.00
2017-07-15T02:03:01.300Z,73.00
2017-07-15T02:05:29.220Z,72.90
2017-07-15T02:07:57.494Z,72.80
2017-07-15T02:10:25.783Z,73.00
2017-07-15T02:12:53.690Z,73.00
2017-07-15T02:15:21.223Z,72.80
2017-07-15T02:17:48.725Z,72.80
2017-07-15T02:20:16.249Z,72.80
2017-07-15T02:22:43.767Z,72.80
2017-07-15T02:25:11.296Z,73.00
2017-07-15T02:27:38.800Z,73.00
2017-07-15T02:30:06.695Z,73.10
2017-07-15T02:32:34.232Z,73.10
2017-07-15T02:35:02.867Z,73.10
2017-07-15T02:37:30.391Z,72.80
2017-07-15T02:39:59.396Z,73.20
2017-07-15T02:42:26.935Z,73.10
2017-07-15T02:44:55.579Z,73.20
2017-07-15T02:47:23.091Z,73.20
2017-07-15T02:49:50.595Z,73.20
2017-07-15T02:52:18.514Z,73.40
2017-07-15T02:54:46.124Z,73.20
2017-07-15T02:57:14.400Z,73.30
2017-07-15T02:59:41.928Z,73.40
2017-07-15T03:02:09.448Z,73.70
2017-07-15T03:04:36.972Z,73.80
2017-07-15T03:07:04.881Z,74.00
2017-07-15T03:09:32.413Z,74.10
2017-07-15T03:11:59.916Z,74.30
2017-07-15T03:14:28.592Z,74.30
2017-07-15T03:16:56.096Z,74.60
2017-07-15T03:19:23.600Z,74.70
2017-07-15T03:21:51.128Z,75.00
2017-07-15T03:24:18.627Z,75.10
2017-07-15T03:26:58.009Z,75.30
2017-07-15T03:29:25.635Z,75.50
2017-07-15T03:31:53.180Z,75.40
2017-07-15T03:34:20.702Z,75.50
2017-07-15T03:36:49.013Z,75.70
2017-07-15T03:39:16.521Z,76.00
2017-07-15T03:41:44.824Z,76.00
2017-07-15T03:44:12.336Z,76.10
2017-07-15T03:46:39.839Z,76.10
2017-07-15T03:49:07.358Z,76.20
2017-07-15T03:51:34.879Z,76.20
2017-07-15T03:54:03.628Z,76.40
2017-07-15T03:56:31.136Z,76.30
2017-07-15T03:58:58.655Z,76.10
2017-07-15T04:01:26.560Z,76.10
2017-07-15T04:03:54.087Z,76.10
2017-07-15T04:06:21.583Z,75.90
2017-07-15T04:08:49.140Z,76.00
2017-07-15T04:11:16.649Z,75.90
2017-07-15T04:13:44.157Z,76.00
2017-07-15T04:16:11.687Z,75.80
2017-07-15T04:18:39.960Z,76.50
2017-07-15T04:21:08.988Z,75.60
2017-07-15T04:23:37.257Z,75.30
2017-07-15T04:26:05.539Z,75.40
2017-07-15T04:28:33.041Z,75.30
2017-07-15T04:31:00.588Z,75.30
2017-07-15T04:33:28.860Z,75.00
2017-07-15T04:35:56.382Z,75.10
2017-07-15T04:38:23.895Z,75.10
2017-07-15T04:40:51.396Z,74.90
2017-07-15T04:43:18.953Z,74.90
2017-07-15T04:45:46.846Z,74.80
2017-07-15T04:48:14.763Z,75.00
2017-07-15T04:50:42.268Z,75.00
2017-07-15T04:53:09.861Z,74.70
2017-07-15T04:55:37.360Z,74.70
2017-07-15T04:58:04.892Z,74.70
2017-07-15T05:00:32.400Z,74.30
2017-07-15T05:02:59.920Z,74.20
2017-07-15T05:05:27.443Z,74.20
2017-07-15T05:07:55.339Z,74.10
2017-07-15T05:10:22.850Z,73.90
2017-07-15T05:12:50.363Z,73.70
2017-07-15T05:15:17.878Z,73.70
2017-07-15T05:17:45.383Z,73.40
2017-07-15T05:20:12.913Z,73.70
2017-07-15T05:22:40.419Z,73.30
2017-07-15T05:25:08.701Z,73.90
2017-07-15T05:27:36.969Z,72.70
2017-07-15T05:30:04.495Z,72.50
2017-07-15T05:32:33.495Z,72.80
2017-07-15T05:35:01.761Z,74.30
2017-07-15T05:37:29.280Z,72.90
2017-07-15T05:39:56.776Z,72.50
2017-07-15T05:42:24.687Z,71.90
2017-07-15T05:44:52.595Z,71.50
2017-07-15T05:47:20.128Z,71.70
2017-07-15T05:49:47.630Z,71.60
2017-07-15T05:52:15.164Z,71.70
2017-07-15T05:54:43.436Z,71.60
2017-07-15T05:57:11.740Z,71.50
2017-07-15T05:59:39.645Z,71.30
2017-07-15T06:02:07.544Z,70.50
2017-07-15T06:04:35.077Z,70.70
2017-07-15T06:07:02.575Z,70.50
2017-07-15T06:11:58.939Z,70.70
2017-07-15T06:14:27.599Z,71.00
2017-07-15T06:16:55.115Z,71.00
2017-07-15T06:19:22.628Z,71.30
2017-07-15T06:21:50.145Z,71.60
2017-07-15T06:24:18.072Z,72.10
2017-07-15T06:26:45.579Z,71.50
2017-07-15T06:29:13.119Z,72.00
2017-07-15T06:31:40.664Z,72.30
2017-07-15T06:34:08.175Z,72.50
2017-07-15T06:36:36.832Z,72.20
2017-07-15T06:39:04.736Z,71.70
2017-07-15T06:41:33.020Z,71.40
2017-07-15T06:44:00.528Z,70.90
2017-07-15T06:46:28.441Z,71.30
2017-07-15T06:48:55.956Z,71.00
2017-07-15T06:51:23.487Z,71.10
2017-07-15T06:53:53.244Z,70.40
2017-07-15T06:56:20.759Z,70.00
2017-07-15T06:58:50.411Z,69.90
2017-07-15T07:01:18.444Z,70.00
2017-07-15T07:03:45.996Z,69.60
2017-07-15T07:06:14.647Z,69.60
2017-07-15T07:08:42.169Z,69.60
2017-07-15T07:11:09.762Z,70.10
2017-07-15T07:13:37.296Z,69.80
2017-07-15T07:16:05.567Z,69.20
2017-07-15T07:18:33.072Z,69.10
2017-07-15T07:21:00.599Z,69.90
2017-07-15T07:23:28.115Z,70.10
2017-07-15T07:25:55.839Z,70.30
2017-07-15T07:28:23.761Z,70.40
2017-07-15T07:30:51.279Z,70.40
2017-07-15T07:33:18.793Z,70.20
2017-07-15T07:35:46.370Z,70.10
2017-07-15T07:38:13.883Z,70.10
2017-07-15T07:40:41.408Z,69.80
2017-07-15T07:43:10.044Z,69.80
2017-07-15T07:45:39.095Z,69.60
2017-07-15T07:48:06.613Z,69.00
2017-07-15T07:50:34.133Z,68.50
2017-07-15T07:53:01.655Z,68.30
2017-07-15T07:55:29.548Z,68.20
2017-07-15T07:57:57.071Z,68.10
2017-07-15T08:00:24.579Z,66.60
2017-07-15T08:02:52.872Z,66.50
2017-07-15T08:05:20.375Z,66.40
2017-07-15T08:07:49.057Z,65.50
2017-07-15T08:10:16.564Z,61.00
2017-07-15T08:12:45.223Z,59.40
2017-07-15T08:15:12.784Z,58.40
2017-07-15T08:17:40.307Z,58.40
2017-07-15T08:20:07.812Z,59.60
2017-07-15T08:22:36.079Z,60.90
2017-07-15T08:25:03.592Z,61.00
2017-07-15T08:27:31.092Z,61.30
2017-07-15T08:29:59.382Z,61.30
2017-07-15T08:32:27.648Z,61.10
2017-07-15T08:34:55.172Z,61.80
2017-07-15T08:37:22.720Z,61.70
2017-07-15T08:39:50.239Z,61.40
2017-07-15T08:42:17.745Z,60.80
2017-07-15T08:44:46.420Z,61.00
2017-07-15T08:47:14.101Z,61.20
2017-07-15T08:49:42.375Z,61.90
2017-07-15T08:52:10.672Z,60.70
2017-07-15T08:54:38.180Z,59.90
2017-07-15T08:57:05.704Z,59.90
2017-07-15T08:59:33.203Z,58.60
2017-07-15T09:02:01.493Z,58.60
2017-07-15T09:04:29.379Z,57.30
2017-07-15T09:06:58.040Z,58.70
2017-07-15T09:09:25.560Z,57.60
2017-07-15T09:11:53.079Z,58.10
2017-07-15T09:14:21.735Z,58.60
2017-07-15T09:16:49.275Z,58.00
2017-07-15T09:19:18.281Z,58.70
2017-07-15T09:21:45.784Z,58.70
2017-07-15T09:24:13.316Z,59.40
2017-07-15T09:26:40.838Z,59.30
2017-07-15T09:29:08.364Z,59.30
2017-07-15T09:31:35.867Z,58.70
2017-07-15T09:34:03.399Z,59.30
2017-07-15T09:36:31.302Z,58.50
2017-07-15T09:41:27.677Z,53.20
2017-07-15T09:43:55.186Z,52.70
2017-07-15T09:46:23.496Z,53.10
2017-07-15T09:48:51.012Z,54.40
2017-07-15T09:51:18.551Z,55.10
2017-07-15T09:53:46.072Z,56.00
2017-07-15T09:56:13.598Z,56.60
2017-07-15T09:58:41.505Z,56.90
2017-07-15T10:01:09.058Z,57.70
2017-07-15T10:03:36.955Z,57.80
2017-07-15T10:06:04.876Z,58.00
2017-07-15T10:08:33.895Z,58.20
2017-07-15T10:11:01.796Z,58.50
2017-07-15T10:13:29.720Z,58.60
2017-07-15T10:15:58.732Z,58.50
2017-07-15T10:18:26.655Z,59.10
2017-07-15T10:20:54.152Z,58.70
2017-07-15T10:23:22.082Z,58.40
2017-07-15T10:25:49.590Z,58.00
2017-07-15T10:28:17.098Z,58.00
2017-07-15T10:30:46.123Z,58.20
2017-07-15T10:33:13.627Z,57.30
2017-07-15T10:35:41.150Z,55.70
2017-07-15T10:38:09.420Z,56.10
2017-07-15T10:40:36.948Z,55.60
2017-07-15T10:45:34.556Z,54.60
2017-07-15T10:48:02.047Z,52.60
2017-07-15T10:50:29.544Z,51.80
2017-07-15T10:52:57.075Z,51.50
2017-07-15T10:55:24.579Z,52.00
2017-07-15T10:57:52.096Z,52.60
2017-07-15T11:00:19.994Z,51.80
2017-07-15T11:02:48.344Z,51.10
2017-07-15T11:05:16.612Z,51.80
2017-07-15T11:07:44.108Z,50.90
2017-07-15T11:10:11.648Z,51.20
2017-07-15T11:12:39.157Z,51.70
2017-07-15T11:15:06.677Z,51.80
2017-07-15T11:17:34.187Z,51.90
2017-07-15T11:20:01.722Z,53.00
2017-07-15T11:22:29.616Z,52.70
2017-07-15T11:24:57.139Z,53.00
2017-07-15T11:27:24.655Z,53.20
2017-07-15T11:29:52.179Z,53.10
2017-07-15T11:32:19.701Z,53.20
2017-07-15T11:34:47.206Z,53.20
2017-07-15T11:37:14.746Z,53.30
2017-07-15T11:39:42.276Z,52.80
2017-07-15T11:42:10.187Z,52.20
2017-07-15T11:44:38.453Z,51.70
2017-07-15T11:47:05.989Z,52.20
2017-07-15T11:49:33.489Z,52.60
2017-07-15T11:52:01.011Z,52.70
2017-07-15T11:54:28.523Z,52.00
2017-07-15T11:56:56.061Z,52.50
2017-07-15T11:59:23.568Z,52.80
2017-07-15T12:01:51.468Z,52.50
2017-07-15T12:04:18.988Z,52.00
2017-07-15T12:06:46.500Z,51.20
2017-07-15T12:09:14.026Z,51.70
2017-07-15T12:11:41.520Z,51.80
2017-07-15T12:14:09.045Z,51.90
2017-07-15T12:16:36.556Z,51.30
2017-07-15T12:19:04.468Z,51.80
2017-07-15T12:21:31.993Z,51.50
2017-07-15T12:23:59.527Z,50.70
2017-07-15T12:26:27.792Z,50.70
2017-07-15T12:31:24.946Z,49.40
2017-07-15T12:33:52.458Z,49.10
2017-07-15T12:36:19.987Z,48.60
2017-07-15T12:38:47.488Z,49.50
2017-07-15T12:41:15.006Z,48.50
2017-07-15T12:43:42.526Z,49.20
2017-07-15T12:46:10.061Z,49.10
2017-07-15T12:48:37.572Z,48.80
2017-07-15T12:51:05.112Z,49.30
2017-07-15T12:53:32.611Z,49.30
2017-07-15T12:56:00.146Z,48.20
2017-07-15T12:58:27.656Z,48.00
2017-07-15T13:00:55.923Z,48.00
2017-07-15T13:03:23.444Z,47.60
2017-07-15T13:05:51.712Z,48.00
2017-07-15T13:08:19.631Z,47.60
2017-07-15T13:10:47.149Z,47.00
2017-07-15T13:13:16.180Z,47.40
2017-07-15T13:15:44.468Z,47.50
2017-07-15T13:18:12.390Z,47.60
2017-07-15T13:20:40.299Z,47.80
2017-07-15T13:23:08.223Z,48.70
2017-07-15T13:25:35.720Z,48.50
2017-07-15T13:28:04.371Z,47.40
2017-07-15T13:30:31.895Z,47.70
2017-07-15T13:33:00.903Z,46.80
2017-07-15T13:35:28.833Z,46.80
2017-07-15T13:37:57.099Z,47.10
2017-07-15T13:40:24.627Z,46.20
2017-07-15T13:42:52.170Z,46.60
2017-07-15T13:45:19.751Z,47.10
2017-07-15T13:47:47.254Z,47.00
2017-07-15T13:50:15.909Z,46.70
2017-07-15T13:52:43.467Z,46.80
2017-07-15T13:55:11.016Z,46.80
2017-07-15T13:57:39.286Z,46.50
2017-07-15T14:00:07.199Z,47.30
2017-07-15T14:02:34.723Z,47.50
2017-07-15T14:05:02.627Z,46.80
2017-07-15T14:07:30.908Z,46.60
2017-07-15T14:09:58.800Z,46.50
2017-07-15T14:12:26.328Z,45.20
2017-07-15T14:14:54.971Z,46.30
2017-07-15T14:17:22.496Z,46.70
2017-07-15T14:19:50.006Z,45.60
2017-07-15T14:22:17.546Z,45.30
2017-07-15T14:24:45.826Z,46.00
2017-07-15T14:27:13.326Z,46.00
2017-07-15T14:29:40.856Z,46.10
2017-07-15T14:32:08.353Z,45.50
2017-07-15T14:34:35.902Z,45.90
2017-07-15T14:37:04.552Z,45.50
2017-07-15T14:39:32.847Z,46.40
2017-07-15T14:42:00.755Z,45.60
2017-07-15T14:44:28.288Z,45.50
2017-07-15T14:46:56.939Z,44.40
2017-07-15T14:49:24.858Z,45.00
2017-07-15T14:51:53.493Z,45.50
2017-07-15T14:54:20.997Z,44.90
2017-07-15T14:56:49.676Z,44.20
2017-07-15T14:59:17.948Z,44.70
2017-07-15T15:01:45.867Z,45.00
2017-07-15T15:04:14.180Z,44.10
2017-07-15T15:06:42.100Z,44.00
2017-07-15T15:09:09.598Z,44.20
2017-07-15T15:11:37.150Z,44.20
2017-07-15T15:14:05.064Z,44.30
2017-07-15T15:16:32.605Z,44.80
2017-07-15T15:19:00.506Z,44.70
2017-07-15T15:21:28.036Z,45.00
2017-07-15T15:23:56.328Z,44.90
2017-07-15T15:26:24.627Z,45.20
2017-07-15T15:28:52.158Z,45.10
2017-07-15T15:31:20.427Z,43.90
2017-07-15T15:33:48.717Z,44.40
2017-07-15T15:36:16.212Z,44.50
2017-07-15T15:38:43.736Z,44.30
2017-07-15T15:41:11.243Z,44.50
2017-07-15T15:43:40.267Z,43.40
2017-07-15T15:46:07.767Z,44.20
2017-07-15T15:48:35.289Z,44.80
2017-07-15T15:51:03.680Z,45.20
2017-07-15T15:56:00.172Z,44.70
2017-07-15T15:58:29.192Z,44.50
2017-07-15T16:00:56.729Z,44.90
2017-07-15T16:03:24.277Z,44.70
2017-07-15T16:05:51.804Z,43.80
2017-07-15T16:08:19.318Z,43.60
2017-07-15T16:10:46.843Z,43.70
2017-07-15T16:13:14.426Z,44.80
2017-07-15T16:15:42.345Z,45.10
2017-07-15T16:18:09.844Z,44.80
2017-07-15T16:20:37.368Z,45.30
2017-07-15T16:23:04.884Z,44.60
2017-07-15T16:25:32.416Z,44.20
2017-07-15T16:28:00.311Z,44.30
2017-07-15T16:30:27.812Z,44.20
2017-07-15T16:32:55.735Z,43.60
2017-07-15T16:35:23.240Z,43.60
2017-07-15T16:37:51.903Z,42.40
2017-07-15T16:40:19.404Z,43.30
2017-07-15T16:42:46.945Z,43.50
2017-07-15T16:45:14.847Z,43.70
2017-07-15T16:47:42.368Z,44.50
2017-07-15T16:50:09.868Z,44.00
2017-07-15T16:52:37.396Z,43.40
2017-07-15T16:55:04.911Z,44.50
2017-07-15T16:57:33.251Z,45.20
2017-07-15T17:00:01.152Z,43.50
2017-07-15T17:02:28.656Z,43.30
2017-07-15T17:04:56.175Z,43.60
2017-07-15T17:07:24.442Z,44.20
2017-07-15T17:12:20.835Z,44.20
2017-07-15T17:14:48.354Z,44.10
2017-07-15T17:17:15.880Z,43.80
2017-07-15T17:19:44.559Z,43.40
2017-07-15T17:22:12.843Z,44.60
2017-07-15T17:24:41.115Z,43.70
2017-07-15T17:27:08.644Z,43.00
2017-07-15T17:29:36.148Z,43.60
2017-07-15T17:32:03.679Z,43.40
2017-07-15T17:37:00.451Z,43.70
2017-07-15T17:39:29.471Z,44.30
2017-07-15T17:41:57.758Z,44.40
2017-07-15T17:44:25.259Z,44.60
2017-07-15T17:46:53.943Z,44.60
2017-07-15T17:49:22.224Z,43.50
2017-07-15T17:51:50.499Z,44.70
2017-07-15T17:54:18.803Z,44.30
2017-07-15T17:56:46.304Z,44.50
2017-07-15T17:59:13.824Z,44.60
2017-07-15T18:01:41.320Z,44.80
2017-07-15T18:04:09.704Z,44.90
2017-07-15T18:06:37.212Z,44.20
2017-07-15T18:09:04.744Z,44.50
2017-07-15T18:11:32.267Z,44.90
2017-07-15T18:14:00.551Z,44.70
2017-07-15T18:16:28.451Z,45.30
2017-07-15T18:18:55.970Z,45.50
2017-07-15T18:21:23.492Z,45.80
2017-07-15T18:23:50.995Z,46.50
2017-07-15T18:26:18.513Z,46.40
2017-07-15T18:28:46.072Z,46.50
2017-07-15T18:31:16.359Z,45.90
2017-07-15T18:33:43.905Z,45.60
2017-07-15T18:36:11.428Z,46.30
2017-07-15T18:38:38.932Z,46.20
2017-07-15T18:41:06.456Z,46.70
2017-07-15T18:43:35.095Z,46.70
2017-07-15T18:46:03.396Z,47.00
2017-07-15T18:48:31.297Z,47.40
2017-07-15T18:50:58.787Z,47.40
2017-07-15T18:53:26.359Z,47.50
2017-07-15T18:55:53.872Z,47.80
2017-07-15T18:58:21.399Z,48.10
2017-07-15T19:00:49.288Z,48.30
2017-07-15T19:03:16.863Z,49.00
2017-07-15T19:05:44.365Z,49.20
2017-07-15T19:08:11.917Z,49.10
2017-07-15T19:10:39.411Z,49.30
2017-07-15T19:13:06.926Z,49.40
2017-07-15T19:15:34.457Z,49.90
2017-07-15T19:18:01.965Z,50.30
2017-07-15T19:20:29.524Z,50.50
2017-07-15T19:22:57.423Z,50.30
2017-07-15T19:25:24.948Z,50.80
2017-07-15T19:27:53.595Z,51.20
2017-07-15T19:30:21.119Z,51.20
2017-07-15T19:32:48.619Z,51.60
2017-07-15T19:35:16.151Z,52.20
2017-07-15T19:37:44.052Z,52.30
2017-07-15T19:40:11.711Z,52.10
2017-07-15T19:42:39.235Z,53.00
2017-07-15T19:47:36.395Z,53.80
2017-07-15T19:50:03.899Z,53.80
2017-07-15T19:52:31.432Z,54.00
2017-07-15T19:54:59.337Z,54.60
2017-07-15T19:57:26.866Z,54.80
2017-07-15T20:02:23.295Z,55.40
2017-07-15T20:04:50.799Z,55.70
2017-07-15T20:07:18.306Z,55.70
2017-07-15T20:09:45.852Z,55.70
2017-07-15T20:12:13.364Z,56.10
2017-07-15T20:14:40.951Z,55.90
2017-07-15T20:17:09.230Z,55.80
2017-07-15T20:19:36.758Z,55.80
2017-07-15T20:22:04.660Z,56.00
2017-07-15T20:24:32.188Z,56.10
2017-07-15T20:27:00.831Z,56.00
2017-07-15T20:29:28.363Z,56.20
2017-07-15T20:31:57.376Z,56.10
2017-07-15T20:34:24.893Z,56.20
2017-07-15T20:36:58.004Z,56.30
2017-07-15T20:39:25.900Z,56.40
2017-07-15T20:41:53.414Z,56.50
2017-07-15T20:44:20.924Z,56.40
2017-07-15T20:46:49.224Z,56.90
2017-07-15T20:49:16.733Z,56.40
2017-07-15T20:51:44.648Z,56.70
2017-07-15T20:54:12.187Z,56.60
2017-07-15T20:56:40.479Z,57.20
2017-07-15T20:59:07.979Z,56.70
2017-07-15T21:01:35.892Z,56.60
2017-07-15T21:04:03.534Z,56.90
2017-07-15T21:06:31.460Z,57.00
2017-07-15T21:08:58.965Z,57.20
2017-07-15T21:13:56.115Z,57.70
2017-07-15T21:16:24.392Z,57.90
2017-07-15T21:18:51.965Z,57.50
2017-07-15T21:21:20.228Z,57.50
2017-07-15T21:23:47.745Z,57.60
2017-07-15T21:26:15.243Z,57.60
2017-07-15T21:28:43.173Z,57.70
2017-07-15T21:31:10.694Z,57.80
2017-07-15T21:33:38.632Z,58.00
2017-07-15T21:36:06.896Z,58.30
2017-07-15T21:38:34.404Z,58.40
2017-07-15T21:41:02.691Z,58.20
2017-07-15T21:43:30.581Z,58.40
2017-07-15T21:45:58.109Z,58.60
2017-07-15T21:48:25.606Z,58.60
2017-07-15T21:50:53.124Z,58.80
2017-07-15T21:53:20.635Z,58.90
2017-07-15T21:55:48.155Z,59.00
2017-07-15T21:58:15.685Z,59.20
2017-07-15T22:00:43.202Z,59.30
2017-07-15T22:03:10.800Z,59.50
2017-07-15T22:05:39.472Z,59.50
2017-07-15T22:08:07.754Z,59.50
2017-07-15T22:10:35.252Z,59.50
2017-07-15T22:13:02.774Z,59.50
2017-07-15T22:15:30.277Z,59.70
2017-07-15T22:17:57.805Z,59.70
2017-07-15T22:20:25.307Z,59.60
2017-07-15T22:22:52.823Z,59.60
2017-07-15T22:25:20.320Z,59.60
2017-07-15T22:27:47.840Z,59.70
2017-07-15T22:30:15.349Z,59.70
2017-07-15T22:32:42.845Z,59.70
2017-07-15T22:35:10.388Z,59.80
2017-07-15T22:37:37.891Z,59.90
2017-07-15T22:40:05.817Z,59.80
2017-07-15T22:42:34.456Z,59.80
2017-07-15T22:45:01.980Z,59.80
2017-07-15T22:47:29.479Z,60.00
2017-07-15T22:49:57.394Z,60.20
2017-07-15T22:52:24.895Z,60.30
2017-07-15T22:54:53.534Z,60.40
2017-07-15T22:57:21.056Z,60.50
2017-07-15T22:59:49.776Z,60.60
2017-07-15T23:02:17.299Z,60.70
2017-07-15T23:04:44.808Z,60.60
2017-07-15T23:07:12.327Z,60.80
2017-07-15T23:09:39.823Z,60.70
2017-07-15T23:12:07.357Z,60.90
2017-07-15T23:14:35.633Z,61.10
2017-07-15T23:17:03.918Z,61.10
2017-07-15T23:19:31.419Z,61.10
2017-07-15T23:21:59.695Z,61.70
2017-07-15T23:24:27.976Z,62.00
2017-07-15T23:26:55.477Z,61.40
2017-07-15T23:29:22.996Z,61.40
2017-07-15T23:31:50.508Z,61.40
2017-07-15T23:34:18.032Z,61.30
2017-07-15T23:36:45.528Z,61.40
2017-07-15T23:39:13.047Z,61.30
2017-07-15T23:41:40.548Z,61.30
2017-07-15T23:44:08.813Z,61.90
2017-07-15T23:46:36.376Z,61.40
2017-07-15T23:49:04.639Z,61.30
2017-07-15T23:51:32.159Z,61.30
2017-07-15T23:53:59.664Z,61.20
2017-07-15T23:56:27.185Z,61.30
2017-07-15T23:58:54.685Z,61.30
